createdAt,value
2019-04-29T00:00:12.371Z,68.31
2019-04-29T00:02:45.072Z,68.47
2019-04-29T00:05:16.496Z,67.58
2019-04-29T00:07:47.550Z,67.79
2019-04-29T00:10:21.249Z,68.34
2019-04-29T00:12:52.492Z,69.35
2019-04-29T00:15:43.719Z,70.56
2019-04-29T00:18:22.945Z,68.65
2019-04-29T00:20:54.003Z,68.99
2019-04-29T00:23:25.010Z,68.72
2019-04-29T00:25:56.052Z,67.45
2019-04-29T00:28:27.001Z,68.53
2019-04-29T00:30:58.123Z,68.47
2019-04-29T00:33:29.191Z,68.67
2019-04-29T00:36:00.237Z,68.37
2019-04-29T00:38:42.940Z,68.49
2019-04-29T00:41:32.912Z,69.41
2019-04-29T00:44:06.527Z,67.37
2019-04-29T00:46:37.640Z,69.82
2019-04-29T00:49:08.710Z,68.04
2019-04-29T00:51:39.913Z,68.29
2019-04-29T00:54:27.158Z,68.13
2019-04-29T00:56:58.115Z,68.14
2019-04-29T00:59:29.073Z,68.46
2019-04-29T01:02:00.050Z,69.42
2019-04-29T01:04:31.162Z,69.62
2019-04-29T01:07:02.201Z,72.45
2019-04-29T01:09:33.690Z,74.38
2019-04-29T01:12:05.015Z,75.80
2019-04-29T01:14:36.040Z,71.07
2019-04-29T01:17:07.007Z,71.37
2019-04-29T01:19:38.004Z,70.63
2019-04-29T01:22:09.037Z,70.03
2019-04-29T01:24:40.198Z,69.05
2019-04-29T01:27:25.459Z,68.30
2019-04-29T01:29:56.480Z,68.99
2019-04-29T01:32:27.514Z,69.54
2019-04-29T01:34:58.571Z,70.01
2019-04-29T01:37:43.105Z,69.37
2019-04-29T01:40:26.084Z,69.50
2019-04-29T01:42:57.130Z,69.42
2019-04-29T01:45:28.131Z,68.84
2019-04-29T01:47:59.135Z,69.11
2019-04-29T01:50:30.094Z,69.78
2019-04-29T01:53:01.063Z,70.60
2019-04-29T01:55:32.085Z,71.84
2019-04-29T01:58:03.201Z,69.12
2019-04-29T02:00:34.328Z,68.39
2019-04-29T02:03:05.377Z,71.40
2019-04-29T02:05:36.364Z,70.88
2019-04-29T02:08:07.394Z,73.11
2019-04-29T02:10:38.534Z,70.84
2019-04-29T02:13:09.526Z,68.81
2019-04-29T02:15:40.514Z,68.73
2019-04-29T02:18:11.463Z,69.39
2019-04-29T02:20:42.425Z,69.67
2019-04-29T02:23:21.842Z,71.43
2019-04-29T02:25:52.839Z,69.50
2019-04-29T02:28:23.886Z,69.02
2019-04-29T02:30:56.524Z,69.09
2019-04-29T02:33:27.805Z,70.02
2019-04-29T02:35:58.817Z,69.88
2019-04-29T02:38:36.810Z,71.47
2019-04-29T02:41:23.928Z,70.00
2019-04-29T02:43:56.570Z,70.36
2019-04-29T02:46:27.543Z,69.16
2019-04-29T02:48:58.570Z,69.86
2019-04-29T02:51:50.988Z,69.45
2019-04-29T02:54:23.466Z,69.08
2019-04-29T02:57:01.121Z,68.56
2019-04-29T02:59:36.772Z,68.56
2019-04-29T03:02:32.827Z,68.64
2019-04-29T03:05:24.996Z,68.48
2019-04-29T03:07:56.033Z,68.83
2019-04-29T03:10:27.159Z,67.96
2019-04-29T03:12:58.193Z,68.75
2019-04-29T03:15:32.265Z,68.53
2019-04-29T03:18:03.880Z,69.78
2019-04-29T03:20:47.833Z,69.63
2019-04-29T03:23:20.628Z,68.16
2019-04-29T03:25:51.641Z,68.37
2019-04-29T03:28:22.742Z,68.99
2019-04-29T03:30:53.947Z,68.61
2019-04-29T03:33:25.138Z,68.83
2019-04-29T03:35:56.288Z,68.35
2019-04-29T03:38:27.402Z,69.85
2019-04-29T03:40:59.495Z,68.17
2019-04-29T03:43:30.537Z,68.55
2019-04-29T03:46:01.698Z,70.42
2019-04-29T03:48:32.741Z,70.36
2019-04-29T03:51:03.781Z,69.35
2019-04-29T03:53:34.820Z,68.80
2019-04-29T03:56:05.938Z,68.89
2019-04-29T03:58:36.917Z,70.14
2019-04-29T04:01:24.257Z,69.04
2019-04-29T04:04:00.901Z,68.45
2019-04-29T04:06:40.006Z,68.95
2019-04-29T04:09:14.915Z,68.87
2019-04-29T04:11:45.940Z,68.70
2019-04-29T04:14:17.044Z,70.32
2019-04-29T04:17:06.911Z,69.76
2019-04-29T04:19:37.954Z,68.68
2019-04-29T04:22:09.061Z,69.42
2019-04-29T04:24:40.061Z,69.36
2019-04-29T04:27:11.142Z,69.05
2019-04-29T04:29:42.116Z,69.11
2019-04-29T04:32:13.147Z,69.41
2019-04-29T04:34:44.215Z,69.08
2019-04-29T04:37:15.441Z,68.05
2019-04-29T04:39:46.880Z,69.31
2019-04-29T04:42:17.869Z,68.42
2019-04-29T04:44:49.423Z,69.62
2019-04-29T04:47:21.229Z,69.40
2019-04-29T04:49:52.289Z,69.37
2019-04-29T04:52:23.241Z,68.58
2019-04-29T04:54:55.937Z,68.98
2019-04-29T04:57:26.906Z,68.38
2019-04-29T04:59:57.967Z,69.22
2019-04-29T05:02:28.943Z,68.67
2019-04-29T05:05:00.036Z,67.88
2019-04-29T05:07:31.009Z,68.74
2019-04-29T05:10:02.178Z,69.58
2019-04-29T05:12:34.230Z,67.40
2019-04-29T05:15:05.816Z,67.67
2019-04-29T05:17:36.945Z,67.24
2019-04-29T05:20:09.412Z,67.57
2019-04-29T05:22:43.160Z,67.36
2019-04-29T05:25:14.235Z,68.14
2019-04-29T05:27:45.231Z,67.43
2019-04-29T05:30:16.472Z,66.83
2019-04-29T05:32:47.475Z,65.96
2019-04-29T05:35:20.855Z,65.22
2019-04-29T05:37:58.201Z,64.34
2019-04-29T05:40:41.654Z,66.05
2019-04-29T05:43:14.828Z,64.86
2019-04-29T05:45:58.982Z,67.17
2019-04-29T05:48:32.065Z,69.68
2019-04-29T05:51:09.147Z,65.89
2019-04-29T05:53:47.844Z,65.33
2019-04-29T05:56:16.524Z,65.41
2019-04-29T05:58:47.497Z,65.42
2019-04-29T06:01:22.050Z,63.70
2019-04-29T06:03:53.157Z,65.58
2019-04-29T06:06:24.903Z,67.09
2019-04-29T06:08:55.788Z,65.19
2019-04-29T06:11:27.965Z,69.34
2019-04-29T06:13:58.944Z,66.51
2019-04-29T06:16:29.922Z,67.85
2019-04-29T06:19:05.569Z,65.67
2019-04-29T06:21:33.782Z,63.95
2019-04-29T06:24:06.369Z,66.58
2019-04-29T06:26:37.634Z,67.02
2019-04-29T06:29:08.616Z,69.59
2019-04-29T06:31:39.577Z,69.09
2019-04-29T06:34:10.539Z,69.19
2019-04-29T06:36:41.537Z,69.85
2019-04-29T06:39:12.495Z,70.44
2019-04-29T06:41:45.102Z,68.69
2019-04-29T06:44:16.931Z,68.21
2019-04-29T06:46:50.177Z,67.34
2019-04-29T06:49:20.769Z,67.81
2019-04-29T06:51:51.741Z,66.73
2019-04-29T06:54:22.895Z,66.96
2019-04-29T06:56:53.923Z,66.11
2019-04-29T06:59:24.920Z,68.50
2019-04-29T07:01:55.971Z,69.10
2019-04-29T07:04:30.747Z,69.52
2019-04-29T07:06:59.851Z,68.31
2019-04-29T07:09:30.813Z,69.90
2019-04-29T07:12:02.030Z,72.30
2019-04-29T07:14:38.137Z,72.21
2019-04-29T07:17:07.221Z,73.84
2019-04-29T07:19:38.457Z,72.03
2019-04-29T07:22:09.515Z,72.79
2019-04-29T07:24:40.508Z,69.66
2019-04-29T07:27:11.840Z,74.27
2019-04-29T07:29:42.813Z,74.14
2019-04-29T07:32:13.800Z,71.12
2019-04-29T07:34:44.849Z,70.07
2019-04-29T07:37:16.790Z,70.57
2019-04-29T07:39:48.051Z,69.57
2019-04-29T07:42:19.111Z,73.10
2019-04-29T07:45:07.631Z,71.05
2019-04-29T07:47:39.971Z,69.25
2019-04-29T07:50:11.472Z,67.32
2019-04-29T07:52:45.672Z,67.83
2019-04-29T07:55:15.719Z,69.51
2019-04-29T07:57:47.737Z,67.41
2019-04-29T08:00:31.933Z,66.32
2019-04-29T08:03:05.904Z,67.11
2019-04-29T08:05:37.339Z,65.86
2019-04-29T08:08:08.498Z,69.25
2019-04-29T08:10:52.549Z,72.78
2019-04-29T08:13:13.699Z,67.92
2019-04-29T08:15:44.691Z,72.77
2019-04-29T08:18:16.172Z,74.02
2019-04-29T08:20:48.371Z,72.84
2019-04-29T08:23:19.343Z,69.70
2019-04-29T08:25:51.002Z,68.89
2019-04-29T08:28:22.236Z,70.12
2019-04-29T08:30:53.293Z,71.67
2019-04-29T08:33:24.345Z,70.07
2019-04-29T08:35:55.339Z,70.55
2019-04-29T08:38:26.331Z,71.58
2019-04-29T08:40:57.301Z,73.34
2019-04-29T08:44:07.113Z,74.91
2019-04-29T08:46:33.686Z,74.24
2019-04-29T08:49:06.129Z,73.83
2019-04-29T08:51:37.514Z,73.77
2019-04-29T08:54:08.607Z,73.82
2019-04-29T08:56:55.150Z,73.79
2019-04-29T08:59:13.537Z,70.00
2019-04-29T09:01:44.632Z,69.25
2019-04-29T09:04:15.788Z,69.40
2019-04-29T09:06:46.770Z,66.82
2019-04-29T09:09:28.818Z,67.36
2019-04-29T09:11:50.534Z,68.20
2019-04-29T09:14:21.572Z,69.56
2019-04-29T09:16:52.614Z,66.66
2019-04-29T09:19:24.080Z,67.76
2019-04-29T09:21:59.367Z,70.59
2019-04-29T09:24:30.528Z,71.85
2019-04-29T09:27:11.307Z,71.35
2019-04-29T09:29:42.479Z,70.05
2019-04-29T09:32:13.622Z,71.82
2019-04-29T09:34:44.664Z,67.81
2019-04-29T09:37:18.610Z,65.93
2019-04-29T09:39:48.549Z,65.96
2019-04-29T09:42:45.601Z,66.70
2019-04-29T09:45:42.313Z,66.69
2019-04-29T09:48:13.289Z,66.73
2019-04-29T09:50:44.279Z,64.75
2019-04-29T09:53:15.305Z,65.55
2019-04-29T09:55:46.382Z,68.67
2019-04-29T09:58:17.362Z,70.88
2019-04-29T10:01:22.765Z,73.04
2019-04-29T10:04:11.655Z,73.08
2019-04-29T10:06:43.075Z,74.88
2019-04-29T10:09:14.457Z,77.66
2019-04-29T10:11:45.503Z,77.83
2019-04-29T10:14:16.543Z,77.04
2019-04-29T10:17:03.322Z,75.73
2019-04-29T10:19:55.848Z,76.80
2019-04-29T10:22:26.886Z,76.01
2019-04-29T10:24:58.819Z,73.35
2019-04-29T10:27:29.848Z,72.47
2019-04-29T10:30:01.016Z,72.56
2019-04-29T10:32:33.582Z,72.11
2019-04-29T10:35:08.711Z,71.42
2019-04-29T10:37:38.745Z,71.65
2019-04-29T10:40:21.365Z,70.65
2019-04-29T10:43:11.423Z,71.00
2019-04-29T10:46:01.867Z,70.98
2019-04-29T10:48:37.388Z,69.33
2019-04-29T10:51:09.640Z,71.35
2019-04-29T10:53:40.626Z,70.46
2019-04-29T10:56:11.813Z,67.81
2019-04-29T10:58:42.865Z,67.31
2019-04-29T11:02:33.957Z,69.29
2019-04-29T11:05:30.564Z,70.96
2019-04-29T11:08:06.052Z,71.84
2019-04-29T11:10:37.168Z,74.54
2019-04-29T11:13:08.326Z,75.73
2019-04-29T11:15:39.372Z,72.96
2019-04-29T11:18:10.455Z,74.34
2019-04-29T11:20:44.525Z,74.56
2019-04-29T11:23:32.649Z,72.43
2019-04-29T11:26:12.367Z,73.40
2019-04-29T11:28:46.834Z,77.31
2019-04-29T11:31:19.308Z,77.00
2019-04-29T11:34:18.046Z,75.05
2019-04-29T11:36:49.345Z,78.75
2019-04-29T11:39:20.413Z,76.14
2019-04-29T11:41:54.625Z,76.92
2019-04-29T11:44:26.601Z,76.08
2019-04-29T11:46:57.517Z,77.94
2019-04-29T11:49:40.298Z,77.85
2019-04-29T11:52:11.332Z,75.16
2019-04-29T11:54:42.384Z,74.73
2019-04-29T11:57:20.563Z,74.74
2019-04-29T12:00:04.656Z,75.32
2019-04-29T12:02:48.809Z,72.85
2019-04-29T12:05:53.811Z,73.29
2019-04-29T12:08:24.862Z,71.02
2019-04-29T12:11:06.468Z,74.04
2019-04-29T12:13:35.698Z,72.61
2019-04-29T12:16:11.749Z,74.44
2019-04-29T12:18:48.372Z,73.04
2019-04-29T12:21:28.474Z,74.00
2019-04-29T12:24:01.062Z,74.66
2019-04-29T12:26:35.569Z,73.86
2019-04-29T12:29:05.525Z,73.37
2019-04-29T12:31:44.817Z,67.58
2019-04-29T12:34:41.587Z,70.88
2019-04-29T12:37:29.803Z,69.87
2019-04-29T12:40:17.628Z,69.27
2019-04-29T12:43:16.194Z,67.63
2019-04-29T12:45:58.776Z,67.07
2019-04-29T12:48:29.956Z,67.33
2019-04-29T12:51:01.031Z,65.41
2019-04-29T12:53:32.141Z,66.64
2019-04-29T12:56:07.269Z,65.68
2019-04-29T12:58:35.823Z,64.79
2019-04-29T13:01:50.238Z,66.74
2019-04-29T13:04:14.907Z,67.32
2019-04-29T13:07:06.792Z,70.94
2019-04-29T13:09:40.990Z,68.92
2019-04-29T13:12:19.702Z,68.99
2019-04-29T13:15:03.154Z,69.30
2019-04-29T13:17:37.092Z,69.40
2019-04-29T13:20:11.640Z,68.77
2019-04-29T13:22:42.423Z,68.51
2019-04-29T13:25:15.641Z,70.07
2019-04-29T13:27:46.764Z,72.01
2019-04-29T13:30:18.002Z,70.94
2019-04-29T13:32:48.993Z,70.31
2019-04-29T13:35:20.221Z,72.56
2019-04-29T13:37:51.216Z,71.95
2019-04-29T13:40:23.087Z,73.35
2019-04-29T13:42:54.104Z,75.32
2019-04-29T13:45:32.998Z,74.79
2019-04-29T13:48:21.221Z,76.33
2019-04-29T13:50:57.062Z,77.32
2019-04-29T13:53:29.206Z,78.69
2019-04-29T13:56:11.072Z,78.32
2019-04-29T13:58:33.066Z,76.93
2019-04-29T14:01:22.143Z,75.95
2019-04-29T14:03:52.609Z,74.84
2019-04-29T14:06:23.586Z,74.79
2019-04-29T14:08:54.624Z,75.71
2019-04-29T14:11:27.340Z,74.18
2019-04-29T14:13:58.427Z,72.66
2019-04-29T14:16:29.744Z,72.89
2019-04-29T14:19:00.746Z,72.27
2019-04-29T14:21:31.967Z,70.46
2019-04-29T14:24:03.174Z,72.97
2019-04-29T14:26:36.962Z,73.30
2019-04-29T14:29:06.952Z,71.74
2019-04-29T14:31:38.080Z,73.76
2019-04-29T14:34:19.900Z,73.34
2019-04-29T14:36:48.781Z,71.42
2019-04-29T14:39:35.952Z,71.03
2019-04-29T14:41:56.841Z,70.58
2019-04-29T14:44:39.635Z,70.03
2019-04-29T14:47:27.198Z,71.12
2019-04-29T14:50:00.383Z,69.27
2019-04-29T14:52:31.480Z,69.98
2019-04-29T14:55:02.459Z,71.27
2019-04-29T14:57:33.443Z,70.79
2019-04-29T15:00:06.990Z,69.88
2019-04-29T15:02:38.606Z,70.66
2019-04-29T15:05:12.261Z,72.69
2019-04-29T15:07:42.488Z,71.56
2019-04-29T15:10:14.030Z,74.10
2019-04-29T15:13:01.396Z,75.49
2019-04-29T15:15:45.882Z,74.87
2019-04-29T15:18:45.915Z,74.77
2019-04-29T15:21:32.177Z,74.49
2019-04-29T15:23:55.693Z,74.39
2019-04-29T15:26:26.784Z,74.04
2019-04-29T15:28:57.864Z,76.62
2019-04-29T15:31:28.852Z,77.92
2019-04-29T15:33:59.822Z,77.14
2019-04-29T15:36:34.793Z,76.94
2019-04-29T15:39:09.809Z,76.63
2019-04-29T15:41:38.249Z,77.42
2019-04-29T15:44:18.829Z,77.24
2019-04-29T15:46:46.681Z,77.56
2019-04-29T15:49:14.875Z,77.19
2019-04-29T15:51:49.316Z,76.47
2019-04-29T15:54:18.510Z,77.57
2019-04-29T15:56:49.628Z,78.12
2019-04-29T15:59:20.644Z,76.99
2019-04-29T16:01:51.598Z,74.53
2019-04-29T16:04:32.187Z,75.39
2019-04-29T16:07:20.231Z,74.16
2019-04-29T16:10:22.385Z,77.19
2019-04-29T16:12:57.260Z,75.24
2019-04-29T16:15:28.391Z,74.42
2019-04-29T16:17:59.365Z,74.61
2019-04-29T16:20:30.339Z,76.30
2019-04-29T16:23:02.187Z,77.08
2019-04-29T16:25:39.965Z,75.72
2019-04-29T16:28:06.216Z,77.56
2019-04-29T16:30:38.539Z,77.90
2019-04-29T16:33:14.066Z,76.12
2019-04-29T16:35:42.352Z,80.00
2019-04-29T16:38:13.813Z,77.21
2019-04-29T16:40:53.571Z,75.16
2019-04-29T16:43:40.061Z,74.96
2019-04-29T16:46:17.435Z,77.83
2019-04-29T16:48:48.698Z,79.03
2019-04-29T16:51:19.792Z,76.86
2019-04-29T16:53:50.853Z,75.21
2019-04-29T16:56:22.103Z,74.43
2019-04-29T16:58:53.189Z,74.63
2019-04-29T17:01:24.277Z,74.12
2019-04-29T17:03:55.277Z,74.87
2019-04-29T17:06:26.338Z,74.01
2019-04-29T17:09:22.751Z,74.16
2019-04-29T17:11:50.427Z,75.48
2019-04-29T17:14:21.820Z,73.98
2019-04-29T17:16:52.839Z,73.54
2019-04-29T17:19:23.952Z,73.60
2019-04-29T17:22:23.773Z,74.24
2019-04-29T17:24:27.910Z,74.56
2019-04-29T17:27:10.272Z,73.13
2019-04-29T17:30:07.559Z,73.54
2019-04-29T17:32:48.322Z,75.09
2019-04-29T17:35:21.566Z,75.67
2019-04-29T17:37:51.127Z,75.00
2019-04-29T17:40:23.128Z,75.11
2019-04-29T17:43:09.644Z,75.42
2019-04-29T17:45:49.787Z,77.79
2019-04-29T17:48:33.437Z,77.22
2019-04-29T17:51:06.984Z,74.85
2019-04-29T17:53:45.996Z,75.75
2019-04-29T17:56:27.043Z,77.56
2019-04-29T17:59:03.200Z,76.78
2019-04-29T18:01:47.168Z,75.69
2019-04-29T18:04:36.115Z,75.72
2019-04-29T18:07:32.768Z,77.31
2019-04-29T18:10:27.898Z,76.18
2019-04-29T18:12:56.748Z,77.25
2019-04-29T18:15:41.905Z,77.00
2019-04-29T18:18:08.563Z,77.18
2019-04-29T18:20:59.505Z,79.39
2019-04-29T18:23:47.142Z,81.63
2019-04-29T18:26:44.216Z,83.18
2019-04-29T18:29:16.201Z,83.35
2019-04-29T18:31:47.644Z,83.62
2019-04-29T18:34:18.756Z,81.89
2019-04-29T18:36:50.069Z,82.15
2019-04-29T18:39:28.598Z,82.33
2019-04-29T18:41:58.754Z,81.77
2019-04-29T18:44:31.268Z,81.87
2019-04-29T18:47:02.363Z,82.46
2019-04-29T18:49:33.368Z,83.95
2019-04-29T18:52:07.551Z,82.88
2019-04-29T18:54:37.545Z,83.35
2019-04-29T18:57:11.674Z,83.78
2019-04-29T18:59:42.881Z,83.71
2019-04-29T19:02:14.892Z,84.51
2019-04-29T19:05:04.055Z,84.13
2019-04-29T19:07:38.476Z,84.32
2019-04-29T19:10:14.226Z,84.82
2019-04-29T19:12:41.352Z,84.12
2019-04-29T19:15:12.426Z,85.31
2019-04-29T19:17:58.299Z,84.79
2019-04-29T19:20:20.324Z,85.37
2019-04-29T19:23:04.895Z,84.25
2019-04-29T19:25:25.525Z,83.35
2019-04-29T19:27:56.570Z,83.80
2019-04-29T19:30:29.284Z,84.32
2019-04-29T19:33:01.771Z,83.73
2019-04-29T19:35:34.599Z,84.06
2019-04-29T19:38:10.889Z,82.25
2019-04-29T19:40:42.561Z,82.92
2019-04-29T19:43:15.357Z,82.20
2019-04-29T19:45:48.870Z,81.88
2019-04-29T19:48:17.611Z,82.47
2019-04-29T19:50:51.635Z,83.34
2019-04-29T19:53:21.710Z,82.21
2019-04-29T19:56:03.545Z,83.33
2019-04-29T19:58:29.572Z,82.70
2019-04-29T20:01:10.740Z,82.06
2019-04-29T20:05:05.259Z,82.02
2019-04-29T20:07:41.204Z,81.96
2019-04-29T20:10:10.348Z,81.65
2019-04-29T20:12:46.129Z,81.78
2019-04-29T20:15:16.317Z,82.01
2019-04-29T20:18:09.602Z,82.51
2019-04-29T20:20:46.040Z,82.32
2019-04-29T20:23:24.844Z,81.91
2019-04-29T20:25:49.953Z,81.93
2019-04-29T20:28:21.683Z,82.53
2019-04-29T20:30:58.421Z,81.82
2019-04-29T20:33:25.980Z,82.02
2019-04-29T20:36:01.950Z,81.77
2019-04-29T20:38:34.157Z,81.94
2019-04-29T20:41:05.481Z,81.46
2019-04-29T20:43:35.989Z,81.55
2019-04-29T20:46:07.364Z,81.13
2019-04-29T20:48:38.535Z,82.06
2019-04-29T20:51:13.282Z,82.30
2019-04-29T20:53:53.467Z,81.46
2019-04-29T20:56:28.852Z,81.21
2019-04-29T20:58:57.462Z,82.19
2019-04-29T21:01:38.689Z,82.07
2019-04-29T21:04:08.512Z,81.65
2019-04-29T21:06:56.638Z,81.58
2019-04-29T21:09:12.390Z,82.03
2019-04-29T21:12:02.700Z,81.77
2019-04-29T21:14:39.280Z,81.67
2019-04-29T21:17:11.166Z,81.70
2019-04-29T21:19:42.397Z,81.16
2019-04-29T21:22:20.379Z,81.74
2019-04-29T21:24:49.422Z,82.19
2019-04-29T21:27:22.687Z,81.97
2019-04-29T21:29:54.003Z,82.00
2019-04-29T21:32:25.782Z,82.31
2019-04-29T21:35:17.153Z,83.41
2019-04-29T21:38:07.569Z,84.19
2019-04-29T21:40:45.968Z,85.39
2019-04-29T21:43:20.592Z,84.69
2019-04-29T21:46:06.526Z,86.06
2019-04-29T21:48:37.571Z,85.82
2019-04-29T21:51:11.198Z,85.26
2019-04-29T21:53:41.286Z,84.92
2019-04-29T21:56:12.397Z,83.56
2019-04-29T21:58:43.374Z,83.04
2019-04-29T22:01:15.268Z,83.90
2019-04-29T22:03:47.566Z,83.25
2019-04-29T22:06:18.712Z,84.10
2019-04-29T22:08:54.246Z,83.85
2019-04-29T22:11:25.746Z,84.46
2019-04-29T22:13:56.772Z,83.43
2019-04-29T22:16:27.862Z,83.37
2019-04-29T22:18:59.149Z,82.50
2019-04-29T22:21:30.183Z,82.86
2019-04-29T22:24:01.167Z,82.37
2019-04-29T22:26:32.279Z,83.90
2019-04-29T22:29:03.647Z,82.99
2019-04-29T22:31:38.239Z,82.71
2019-04-29T22:34:09.983Z,83.36
2019-04-29T22:36:40.366Z,83.58
2019-04-29T22:39:11.508Z,83.87
2019-04-29T22:41:57.850Z,84.05
2019-04-29T22:44:28.895Z,84.11
2019-04-29T22:46:59.912Z,82.97
2019-04-29T22:49:30.930Z,83.77
2019-04-29T22:52:02.010Z,83.57
2019-04-29T22:54:35.320Z,83.05
2019-04-29T22:57:06.949Z,83.64
2019-04-29T22:59:38.000Z,83.34
2019-04-29T23:02:09.099Z,84.99
2019-04-29T23:04:40.067Z,83.82
2019-04-29T23:07:11.032Z,85.11
2019-04-29T23:09:46.298Z,84.97
2019-04-29T23:12:18.554Z,83.65
2019-04-29T23:14:47.541Z,82.44
2019-04-29T23:17:18.588Z,82.34
2019-04-29T23:19:55.139Z,82.39
2019-04-29T23:22:45.335Z,82.66
2019-04-29T23:25:28.555Z,82.29
2019-04-29T23:27:55.405Z,83.58
2019-04-29T23:30:28.575Z,83.59
2019-04-29T23:32:59.648Z,83.28
2019-04-29T23:35:30.699Z,83.20
2019-04-29T23:38:04.460Z,82.91
2019-04-29T23:40:34.400Z,82.84
2019-04-29T23:43:06.136Z,82.37
2019-04-29T23:45:37.225Z,82.55
2019-04-29T23:48:08.279Z,83.38
2019-04-29T23:50:39.331Z,83.41
2019-04-29T23:53:10.317Z,82.94
2019-04-29T23:55:41.531Z,82.86
2019-04-29T23:58:25.617Z,83.14
